Time;durP1;ratioP1;P1;durP2;ratioP2;P2;SDS_P1;SDS_P2;PMS_P1;PMS_P2;Temp;Humidity;BMP_temperature;BMP_pressure;BME280_temperature;BME280_humidity;BME280_pressure;Samples;Min_cycle;Max_cycle;Signal;HPM_P1;HPM_P2
2022/10/22 00:01:34;;;;;;;;;5.00;5.00;;;;;22.21;51.84;100457.28;5067792;28;45280;-46
2022/10/22 00:03:59;;;;;;;;;4.25;4.25;;;;;22.19;51.69;100457.41;5077677;28;44657;-41
2022/10/22 00:06:25;;;;;;;;;4.50;4.50;;;;;22.20;51.79;100464.38;5079660;28;46356;-42
2022/10/22 00:08:50;;;;;;;;;4.00;4.00;;;;;22.20;51.72;100460.88;5071027;28;45261;-46
2022/10/22 00:11:18;;;;;;;;;5.00;5.00;;;;;22.18;51.92;100458.34;5061596;28;45434;-46
2022/10/22 00:13:44;;;;;;;;;4.50;4.00;;;;;22.20;51.53;100467.00;5059889;28;46329;-45
2022/10/22 00:16:10;;;;;;;;;4.25;3.75;;;;;22.20;51.65;100466.16;5068926;28;45783;-44
2022/10/22 00:18:36;;;;;;;;;4.75;3.50;;;;;22.20;51.72;100472.28;5059539;28;45541;-45
2022/10/22 00:21:02;;;;;;;;;3.25;3.25;;;;;22.19;51.75;100470.59;5058069;28;46609;-51
2022/10/22 00:23:27;;;;;;;;;6.00;4.00;;;;;22.19;51.79;100475.88;5057718;28;45244;-45
2022/10/22 00:25:53;;;;;;;;;4.00;3.00;;;;;22.19;51.85;100473.22;5057326;28;45774;-48
2022/10/22 00:28:19;;;;;;;;;5.00;4.25;;;;;22.19;51.86;100490.84;5058455;28;45619;-49
2022/10/22 00:30:45;;;;;;;;;3.50;3.00;;;;;22.19;51.63;100486.44;5058075;28;46329;-45
2022/10/22 00:33:10;;;;;;;;;3.00;3.00;;;;;22.19;51.46;100483.78;5065662;28;45254;-48
2022/10/22 00:35:35;;;;;;;;;6.00;4.00;;;;;22.19;51.76;100496.13;5062528;28;45496;-48
2022/10/22 00:38:01;;;;;;;;;5.00;3.50;;;;;22.18;51.80;100505.84;5059350;28;45325;-41
2022/10/22 00:40:26;;;;;;;;;2.50;2.50;;;;;22.19;51.74;100501.41;5058256;28;46127;-44
2022/10/22 00:42:53;;;;;;;;;5.00;3.00;;;;;22.18;51.35;100505.00;5058113;28;45928;-42
2022/10/22 00:45:24;;;;;;;;;3.00;3.00;;;;;22.19;51.61;100511.97;5058503;28;45782;-42
2022/10/22 00:47:50;;;;;;;;;3.25;3.25;;;;;22.18;51.84;100508.50;5058375;28;45273;-44
2022/10/22 00:50:27;;;;;;;;;4.00;4.00;;;;;22.18;51.77;100516.41;5056889;28;46458;-45
2022/10/22 00:52:54;;;;;;;;;3.00;3.00;;;;;22.19;51.62;100518.09;5058303;28;45259;-43
2022/10/22 00:55:21;;;;;;;;;3.25;2.00;;;;;22.18;51.76;100524.34;5058782;28;45410;-47
2022/10/22 00:57:46;;;;;;;;;4.00;3.50;;;;;22.17;51.58;100522.63;5058429;28;45497;-49
2022/10/22 01:00:12;;;;;;;;;3.50;3.50;;;;;22.18;51.70;100526.97;5060094;28;46224;-48
2022/10/22 01:02:38;;;;;;;;;5.00;4.50;;;;;22.18;51.63;100532.25;5064732;28;45422;-46
2022/10/22 01:05:04;;;;;;;;;5.50;4.25;;;;;22.19;51.49;100533.09;5064482;28;45338;-45
2022/10/22 01:07:30;;;;;;;;;3.00;3.00;;;;;22.19;51.65;100533.09;5079228;27;45659;-43
2022/10/22 01:10:30;;;;;;;;;3.00;3.00;;;;;22.18;51.81;100542.81;5062461;28;46469;-44
2022/10/22 01:13:14;;;;;;;;;3.00;3.00;;;;;22.19;51.69;100535.72;5065601;28;45404;-45
2022/10/22 01:15:46;;;;;;;;;3.50;3.00;;;;;22.18;51.68;100542.81;5058526;28;45441;-42
2022/10/22 01:18:21;;;;;;;;;2.75;2.75;;;;;22.18;51.68;100547.22;5057861;28;45488;-41
2022/10/22 01:20:58;;;;;;;;;5.75;3.00;;;;;22.18;51.79;100552.50;5057036;28;46495;-45
2022/10/22 01:23:47;;;;;;;;;5.00;3.50;;;;;22.16;51.75;100549.97;5058085;28;45732;-41
2022/10/22 01:26:31;;;;;;;;;3.00;3.00;;;;;22.17;51.50;100551.66;5056842;28;45380;-42
2022/10/22 01:29:12;;;;;;;;;2.75;2.50;;;;;22.17;51.50;100556.94;5058621;28;46026;-45
2022/10/22 01:31:43;;;;;;;;;3.00;3.00;;;;;22.18;51.77;100565.69;5069578;28;45436;-42
2022/10/22 01:34:13;;;;;;;;;2.00;2.00;;;;;22.16;51.74;100560.53;5066031;28;45223;-44
2022/10/22 01:36:39;;;;;;;;;4.50;3.50;;;;;22.16;51.61;100571.09;5057882;28;45312;-47
2022/10/22 01:39:07;;;;;;;;;3.00;3.00;;;;;22.17;51.66;100572.78;5058122;28;45597;-43
2022/10/22 01:41:33;;;;;;;;;4.00;2.00;;;;;22.16;51.58;100563.19;5057745;28;45823;-47
2022/10/22 01:43:59;;;;;;;;;5.00;3.00;;;;;22.18;51.48;100573.63;5057513;28;45748;-46
2022/10/22 01:46:26;;;;;;;;;2.00;2.00;;;;;22.17;51.64;100575.44;5057553;28;45382;-46
2022/10/22 01:49:07;;;;;;;;;4.00;2.75;;;;;22.17;51.57;100571.94;5057450;28;45251;-46
2022/10/22 01:51:51;;;;;;;;;7.75;4.00;;;;;22.18;51.69;100573.63;5057713;28;46436;-45
2022/10/22 01:54:34;;;;;;;;;4.50;3.00;;;;;22.17;51.71;100574.56;5057448;28;45649;-43
2022/10/22 01:57:33;;;;;;;;;2.00;2.00;;;;;22.17;51.73;100575.44;5058439;28;45487;-48
2022/10/22 02:00:01;;;;;;;;;3.25;2.50;;;;;22.17;51.85;100571.94;5065619;28;45260;-47
2022/10/22 02:02:49;;;;;;;;;2.25;2.25;;;;;22.16;51.76;100573.75;5058870;28;45660;-42
2022/10/22 02:05:21;;;;;;;;;5.25;2.25;;;;;22.17;51.95;100578.06;5047469;28;45319;-48
2022/10/22 02:07:51;;;;;;;;;2.75;2.50;;;;;22.17;51.61;100582.47;5057198;28;45352;-44
2022/10/22 02:10:18;;;;;;;;;2.00;2.00;;;;;22.12;51.98;100571.41;5057892;28;45303;-44
2022/10/22 02:12:49;;;;;;;;;2.00;2.00;;;;;22.16;51.81;100576.38;5057002;28;45497;-44
2022/10/22 02:15:18;;;;;;;;;2.00;2.00;;;;;22.16;51.53;100581.66;5058417;28;46199;-45
2022/10/22 02:17:45;;;;;;;;;2.00;2.00;;;;;22.15;51.74;100597.59;5058177;28;45388;-42
2022/10/22 02:20:22;;;;;;;;;3.75;2.75;;;;;22.16;51.84;100589.56;5058622;28;45168;-44
2022/10/22 02:22:47;;;;;;;;;4.00;2.50;;;;;22.16;51.72;100588.75;5057987;28;45336;-46
2022/10/22 02:25:13;;;;;;;;;3.00;3.00;;;;;22.16;51.63;100576.38;5059206;28;45835;-43
2022/10/22 02:27:46;;;;;;;;;2.00;2.00;;;;;22.15;51.67;100579.97;5090060;28;45554;-45
2022/10/22 02:30:16;;;;;;;;;3.00;1.75;;;;;22.16;51.70;100575.53;5071198;28;45380;-53
2022/10/22 02:32:52;;;;;;;;;6.50;1.75;;;;;22.17;51.69;100586.00;5057168;28;46336;-51
2022/10/22 02:35:21;;;;;;;;;2.75;2.00;;;;;22.17;51.73;100593.91;5057906;28;45355;-51
2022/10/22 02:37:47;;;;;;;;;1.25;1.25;;;;;22.16;51.62;100592.22;5056959;28;45522;-51
2022/10/22 02:40:13;;;;;;;;;2.00;2.00;;;;;22.16;51.73;100589.56;5057358;28;45292;-49
2022/10/22 02:42:40;;;;;;;;;2.00;2.00;;;;;22.16;51.85;100594.84;5057114;28;46627;-41
2022/10/22 02:45:06;;;;;;;;;4.00;1.25;;;;;22.16;51.78;100600.13;5057576;28;45411;-46
2022/10/22 02:47:32;;;;;;;;;2.00;2.00;;;;;22.17;51.76;100601.81;5056645;28;45394;-43
2022/10/22 02:49:57;;;;;;;;;2.00;2.00;;;;;22.16;51.80;100605.41;5057130;28;45907;-44
2022/10/22 02:52:23;;;;;;;;;2.25;2.00;;;;;22.16;51.64;100615.97;5056731;28;45425;-44
2022/10/22 02:54:48;;;;;;;;;3.00;2.00;;;;;22.17;51.74;100612.38;5058713;28;45187;-44
2022/10/22 02:57:13;;;;;;;;;2.00;1.00;;;;;22.15;51.81;100616.91;5064109;28;45212;-45
2022/10/22 02:59:38;;;;;;;;;2.00;2.00;;;;;22.17;51.61;100619.44;5058994;28;45291;-44
2022/10/22 03:02:04;;;;;;;;;3.00;1.75;;;;;22.17;51.62;100624.72;5057305;28;46275;-45
2022/10/22 03:04:29;;;;;;;;;3.75;2.00;;;;;22.16;51.62;100629.16;5057672;28;45398;-44
2022/10/22 03:06:54;;;;;;;;;2.25;2.00;;;;;22.17;52.01;100632.63;5057367;28;45386;-46
2022/10/22 03:09:20;;;;;;;;;2.75;1.50;;;;;22.15;51.62;100630.09;5057122;28;45525;-43
2022/10/22 03:11:45;;;;;;;;;3.25;2.25;;;;;22.17;51.57;100632.63;5057033;28;45479;-40
2022/10/22 03:14:11;;;;;;;;;1.75;1.75;;;;;22.16;51.76;100628.34;5056286;28;46467;-45
2022/10/22 03:16:37;;;;;;;;;2.50;2.50;;;;;22.16;51.68;100631.81;5057748;28;45381;-46
2022/10/22 03:19:02;;;;;;;;;2.50;2.50;;;;;22.14;51.75;100633.69;5057106;28;45311;-43
2022/10/22 03:21:36;;;;;;;;;2.00;2.00;;;;;22.16;52.21;100647.66;5058376;28;46302;-43
2022/10/22 03:24:07;;;;;;;;;2.50;2.00;;;;;22.17;51.57;100646.69;5062801;28;45185;-42
2022/10/22 03:26:33;;;;;;;;;2.25;2.25;;;;;22.16;51.28;100645.00;5065228;28;45378;-46
2022/10/22 03:28:59;;;;;;;;;4.00;2.00;;;;;22.16;51.44;100644.16;5059017;28;45228;-48
2022/10/22 03:31:25;;;;;;;;;1.00;1.00;;;;;22.15;51.57;100645.94;5056301;28;46346;-44
2022/10/22 03:33:50;;;;;;;;;2.00;2.00;;;;;22.16;51.62;100650.28;5056343;28;45168;-42
2022/10/22 03:36:15;;;;;;;;;1.00;1.00;;;;;22.15;51.58;100653.88;5056586;28;45331;-47
2022/10/22 03:38:41;;;;;;;;;2.50;2.50;;;;;22.15;51.67;100653.03;5056631;28;45578;-50
2022/10/22 03:41:07;;;;;;;;;2.00;2.00;;;;;22.14;51.88;100652.16;5056671;28;47081;-51
2022/10/22 03:43:37;;;;;;;;;2.00;2.00;;;;;22.15;51.50;100659.16;5058745;28;45371;-46
2022/10/22 03:46:03;;;;;;;;;2.50;2.50;;;;;22.16;51.53;100663.47;5061328;28;45415;-49
2022/10/22 03:48:28;;;;;;;;;3.75;2.50;;;;;22.16;51.60;100663.47;5071257;28;44957;-52
2022/10/22 03:50:54;;;;;;;;;2.00;2.00;;;;;22.15;51.38;100664.44;5069792;28;46705;-47
2022/10/22 03:53:19;;;;;;;;;2.00;2.00;;;;;22.15;51.45;100663.59;5066975;28;45217;-48
2022/10/22 03:55:45;;;;;;;;;3.00;1.25;;;;;22.15;51.85;100660.94;5069577;28;45231;-43
2022/10/22 03:58:10;;;;;;;;;2.00;2.00;;;;;22.15;51.44;100660.94;5070289;28;45644;-52
2022/10/22 04:00:35;;;;;;;;;1.00;1.00;;;;;22.14;51.62;100670.66;5060169;28;61300;-41
2022/10/22 04:03:01;;;;;;;;;1.00;1.00;;;;;22.15;51.70;100672.34;5060995;28;45413;-49
2022/10/22 04:05:26;;;;;;;;;2.00;2.00;;;;;22.14;51.57;100673.28;5060429;28;45389;-49
2022/10/22 04:07:52;;;;;;;;;2.00;2.00;;;;;22.14;51.59;100691.75;5060536;28;45657;-49
2022/10/22 04:10:17;;;;;;;;;2.25;2.00;;;;;22.15;51.54;100690.00;5059451;28;58436;-52
2022/10/22 04:12:46;;;;;;;;;1.75;1.00;;;;;22.14;51.53;100683.84;5059683;28;45338;-52
2022/10/22 04:15:11;;;;;;;;;1.00;1.00;;;;;22.14;51.50;100689.13;5059106;28;45328;-50
2022/10/22 04:17:36;;;;;;;;;2.50;1.25;;;;;22.13;51.42;100692.72;5058436;28;50556;-49
2022/10/22 04:20:03;;;;;;;;;3.00;1.75;;;;;22.15;51.61;100698.75;5058878;28;53606;-50
2022/10/22 04:22:31;;;;;;;;;1.25;1.25;;;;;22.14;51.49;100697.03;5060793;28;45635;-47
2022/10/22 04:24:57;;;;;;;;;2.00;1.00;;;;;22.13;51.62;100692.72;5066653;28;45739;-51
2022/10/22 04:27:22;;;;;;;;;2.00;2.00;;;;;22.14;51.57;100698.84;5062632;28;45699;-47
2022/10/22 04:29:47;;;;;;;;;1.00;1.00;;;;;22.14;51.50;100702.31;5058745;28;45429;-49
2022/10/22 04:32:13;;;;;;;;;1.00;1.00;;;;;22.14;51.60;100702.31;5058832;28;45426;-51
2022/10/22 04:34:38;;;;;;;;;2.75;1.00;;;;;22.13;51.40;100703.25;5058727;28;45271;-50
2022/10/22 04:37:03;;;;;;;;;1.50;1.50;;;;;22.13;51.50;100705.91;5059006;28;45847;-41
2022/10/22 04:39:29;;;;;;;;;1.50;1.50;;;;;22.13;51.38;100707.72;5058647;28;46669;-48
2022/10/22 04:41:55;;;;;;;;;3.00;2.00;;;;;22.13;51.29;100716.47;5058500;28;45416;-48
2022/10/22 04:44:20;;;;;;;;;1.00;1.00;;;;;22.13;51.60;100719.09;5059225;28;45275;-48
2022/10/22 04:46:45;;;;;;;;;3.00;1.50;;;;;22.14;51.44;100720.78;5059473;28;45383;-51
2022/10/22 04:49:11;;;;;;;;;2.75;1.50;;;;;22.14;51.50;100723.44;5058342;28;45500;-50
2022/10/22 04:51:36;;;;;;;;;2.50;1.75;;;;;22.14;51.58;100720.78;5074116;28;45469;-47
2022/10/22 04:54:03;;;;;;;;;1.25;1.25;;;;;22.13;51.51;100724.38;5079670;28;44720;-49
2022/10/22 04:56:29;;;;;;;;;1.00;1.00;;;;;22.14;51.52;100726.06;5074578;28;44793;-47
2022/10/22 04:59:13;;;;;;;;;1.00;1.00;;;;;22.12;51.47;100722.69;5073516;28;45302;-46
2022/10/22 05:01:41;;;;;;;;;1.00;1.00;;;;;22.13;51.49;100716.47;5072261;28;44959;-47
2022/10/22 05:04:10;;;;;;;;;2.50;2.00;;;;;22.12;51.54;100717.41;5075289;28;45295;-41
2022/10/22 05:06:37;;;;;;;;;2.25;1.25;;;;;22.13;51.38;100724.38;5069263;28;44802;-45
2022/10/22 05:09:06;;;;;;;;;2.00;2.00;;;;;22.13;51.39;100734.94;5071322;28;45578;-50
2022/10/22 05:11:34;;;;;;;;;2.00;2.00;;;;;22.12;51.59;100733.25;5076921;28;45271;-50
2022/10/22 05:14:02;;;;;;;;;2.00;2.00;;;;;22.13;51.34;100731.47;5073939;28;45721;-50
2022/10/22 05:16:28;;;;;;;;;2.25;2.25;;;;;22.12;51.81;100738.53;5074399;28;44828;-50
2022/10/22 05:18:54;;;;;;;;;3.00;1.00;;;;;22.11;51.59;100731.53;5070827;28;45263;-51
2022/10/22 05:21:20;;;;;;;;;2.00;1.00;;;;;22.11;51.58;100741.28;5067928;28;45373;-49
2022/10/22 05:23:47;;;;;;;;;1.00;1.00;;;;;22.11;51.28;100742.09;5067800;28;45288;-50
2022/10/22 05:26:16;;;;;;;;;2.00;2.00;;;;;22.12;51.40;100750.88;5073044;28;45277;-50
2022/10/22 05:28:41;;;;;;;;;1.25;1.25;;;;;22.12;51.93;100754.34;5071347;28;45519;-51
2022/10/22 05:31:09;;;;;;;;;2.00;1.00;;;;;22.12;51.51;100751.72;5073924;28;45357;-46
2022/10/22 05:33:34;;;;;;;;;3.00;2.00;;;;;22.11;51.58;100752.66;5077744;28;44782;-45
2022/10/22 05:36:02;;;;;;;;;3.00;2.00;;;;;22.12;51.42;100759.63;5073973;28;45220;-49
2022/10/22 05:38:27;;;;;;;;;2.00;1.50;;;;;22.11;51.41;100755.31;5073074;28;46407;-52
2022/10/22 05:41:02;;;;;;;;;1.50;1.50;;;;;22.11;51.28;100760.56;5073478;28;45719;-47
2022/10/22 05:43:28;;;;;;;;;2.00;1.00;;;;;22.12;51.20;100758.81;5072588;28;45382;-49
2022/10/22 05:45:53;;;;;;;;;2.75;2.00;;;;;22.11;51.31;100759.75;5074322;28;46110;-43
2022/10/22 05:48:19;;;;;;;;;2.25;1.25;;;;;22.13;51.37;100763.13;5075824;28;49478;-42
2022/10/22 05:50:49;;;;;;;;;2.25;1.00;;;;;22.11;51.34;100763.22;5074004;28;45617;-47
2022/10/22 05:53:14;;;;;;;;;3.50;2.00;;;;;22.10;51.34;100761.56;5081345;28;45524;-45
2022/10/22 05:55:40;;;;;;;;;2.50;2.50;;;;;22.10;51.25;100761.56;5085731;28;45327;-42
2022/10/22 05:58:05;;;;;;;;;4.75;3.00;;;;;22.09;50.92;100765.13;5073045;28;45432;-45
2022/10/22 06:00:31;;;;;;;;;2.00;2.00;;;;;22.05;51.05;100758.34;5071732;28;45224;-43
2022/10/22 06:02:56;;;;;;;;;2.25;2.00;;;;;22.04;50.93;100762.78;5073168;28;45319;-43
2022/10/22 06:05:21;;;;;;;;;3.00;2.00;;;;;22.03;51.05;100766.38;5072508;28;45183;-41
2022/10/22 06:07:47;;;;;;;;;3.75;2.25;;;;;22.03;50.91;100768.13;5071437;28;45357;-44
2022/10/22 06:10:18;;;;;;;;;3.00;1.25;;;;;22.01;50.86;100762.09;5085243;28;45390;-46
2022/10/22 06:12:45;;;;;;;;;2.25;2.00;;;;;21.99;51.06;100771.94;5091522;28;45189;-42
2022/10/22 06:15:13;;;;;;;;;2.50;2.00;;;;;21.99;50.87;100769.28;5093656;28;45529;-43
2022/10/22 06:17:38;;;;;;;;;3.00;2.00;;;;;21.97;50.79;100766.72;5087351;28;46111;-46
2022/10/22 06:20:04;;;;;;;;;3.75;2.00;;;;;21.96;51.15;100774.75;5085378;28;45329;-47
2022/10/22 06:22:29;;;;;;;;;1.50;1.50;;;;;21.93;50.88;100781.91;5083133;28;45959;-45
2022/10/22 06:24:55;;;;;;;;;2.00;2.00;;;;;21.95;50.81;100768.63;5083187;28;45420;-44
2022/10/22 06:27:20;;;;;;;;;2.00;2.00;;;;;21.94;50.83;100782.75;5081682;28;56908;-46
2022/10/22 06:29:47;;;;;;;;;3.00;2.00;;;;;21.92;50.74;100789.94;5085884;28;45371;-45
2022/10/22 06:32:12;;;;;;;;;4.75;3.00;;;;;21.92;51.04;100788.13;5093457;28;45398;-45
2022/10/22 06:34:38;;;;;;;;;3.00;2.00;;;;;21.90;50.81;100791.81;5083183;28;45266;-44
2022/10/22 06:37:03;;;;;;;;;1.25;1.25;;;;;21.90;50.85;100795.28;5078023;28;45346;-46
2022/10/22 06:39:29;;;;;;;;;5.00;3.00;;;;;21.89;50.80;100790.94;5078559;28;45417;-47
2022/10/22 06:41:54;;;;;;;;;1.00;1.00;;;;;21.89;50.82;100796.22;5078579;28;45402;-51
2022/10/22 06:44:20;;;;;;;;;2.75;2.00;;;;;21.88;51.06;100799.81;5078207;28;45503;-45
2022/10/22 06:46:48;;;;;;;;;2.25;2.00;;;;;21.88;50.98;100799.81;5081307;28;46083;-46
2022/10/22 06:49:16;;;;;;;;;2.75;2.75;;;;;21.86;51.03;100807.00;5081201;28;45256;-47
2022/10/22 06:51:41;;;;;;;;;3.00;3.00;;;;;21.85;51.09;100810.56;5077474;28;45255;-48
2022/10/22 06:54:06;;;;;;;;;3.75;3.75;;;;;21.85;50.91;100810.56;5082960;28;45195;-49
2022/10/22 06:56:32;;;;;;;;;3.00;3.00;;;;;21.87;51.01;100819.25;5089903;28;45332;-49
2022/10/22 06:58:57;;;;;;;;;2.50;1.50;;;;;21.86;51.11;100828.09;5095852;28;44637;-49
2022/10/22 07:01:26;;;;;;;;;3.50;2.00;;;;;21.86;51.05;100832.50;5097380;28;44739;-48
2022/10/22 07:03:53;;;;;;;;;2.00;2.00;;;;;21.84;51.10;100829.97;5080813;28;45604;-49
2022/10/22 07:06:19;;;;;;;;;2.50;1.25;;;;;21.83;51.16;100836.19;5082184;28;46304;-49
2022/10/22 07:08:45;;;;;;;;;2.00;2.00;;;;;21.83;51.09;100843.28;5077899;28;45942;-50
2022/10/22 07:11:22;;;;;;;;;1.00;1.00;;;;;21.83;51.00;100844.13;5077880;28;45897;-49
2022/10/22 07:13:48;;;;;;;;;2.50;1.00;;;;;21.82;51.09;100837.13;5077583;28;45222;-51
2022/10/22 07:16:15;;;;;;;;;3.50;2.00;;;;;21.82;51.22;100847.69;5082784;27;45322;-44
2022/10/22 07:18:41;;;;;;;;;4.75;2.00;;;;;21.83;51.15;100854.66;5087062;28;45352;-45
2022/10/22 07:21:08;;;;;;;;;3.50;1.75;;;;;21.82;51.04;100855.59;5082200;28;45393;-49
2022/10/22 07:23:33;;;;;;;;;2.00;2.00;;;;;21.83;51.02;100859.09;5087810;28;45493;-47
2022/10/22 07:26:01;;;;;;;;;2.50;2.50;;;;;21.83;51.20;100859.09;5085856;28;47329;-49
2022/10/22 07:28:27;;;;;;;;;3.00;2.00;;;;;21.83;51.05;100865.22;5086368;28;45343;-46
2022/10/22 07:30:53;;;;;;;;;1.75;1.00;;;;;21.83;51.10;100867.03;5087721;28;45526;-47
2022/10/22 07:33:18;;;;;;;;;5.00;2.00;;;;;21.84;51.42;100868.69;5083668;28;45325;-45
2022/10/22 07:35:44;;;;;;;;;3.00;2.25;;;;;21.83;51.22;100859.09;5076883;28;46264;-46
2022/10/22 07:38:09;;;;;;;;;2.00;2.00;;;;;21.83;51.16;100875.78;5079843;28;45282;-46
2022/10/22 07:40:35;;;;;;;;;2.50;2.00;;;;;21.83;51.15;100875.78;5077242;28;45267;-43
2022/10/22 07:43:01;;;;;;;;;3.50;1.25;;;;;21.84;51.03;100879.25;5080683;28;45223;-46
2022/10/22 07:45:26;;;;;;;;;3.00;2.25;;;;;21.84;51.28;100884.53;5083085;28;46389;-49
2022/10/22 07:47:52;;;;;;;;;2.50;2.00;;;;;21.81;51.30;100877.66;5076443;28;45440;-50
2022/10/22 07:50:17;;;;;;;;;2.00;2.00;;;;;21.83;51.29;100881.06;5077088;28;45322;-45
2022/10/22 07:52:43;;;;;;;;;3.50;2.00;;;;;21.83;51.29;100878.41;5088304;28;45557;-47
2022/10/22 07:55:08;;;;;;;;;2.00;2.00;;;;;21.84;51.24;100882.75;5082886;28;46374;-47
2022/10/22 07:57:35;;;;;;;;;5.00;2.00;;;;;21.82;51.40;100879.34;5077669;28;45394;-47
2022/10/22 08:00:03;;;;;;;;;1.75;1.75;;;;;21.83;51.21;100883.69;5076909;28;45355;-43
2022/10/22 08:02:28;;;;;;;;;2.00;2.00;;;;;21.84;51.28;100882.75;5076995;28;45537;-45
2022/10/22 08:04:55;;;;;;;;;2.50;2.00;;;;;21.82;51.14;100887.25;5076628;27;48187;-45
2022/10/22 08:07:21;;;;;;;;;2.00;2.00;;;;;21.85;51.04;100895.00;5077144;28;45669;-44
2022/10/22 08:09:47;;;;;;;;;3.25;2.00;;;;;21.84;51.15;100893.31;5076548;28;45412;-45
2022/10/22 08:12:12;;;;;;;;;2.00;2.00;;;;;21.85;51.16;100904.69;5079554;28;45329;-48
2022/10/22 08:14:37;;;;;;;;;1.25;1.25;;;;;21.85;51.25;100899.41;5080767;28;45369;-47
2022/10/22 08:17:03;;;;;;;;;2.25;2.00;;;;;21.84;51.21;100895.94;5078349;28;45292;-46
2022/10/22 08:19:31;;;;;;;;;3.00;2.00;;;;;21.85;51.15;100902.06;5079397;28;45370;-48
2022/10/22 08:21:56;;;;;;;;;4.00;2.25;;;;;21.84;51.24;100893.31;5080007;28;45278;-52
2022/10/22 08:24:21;;;;;;;;;2.00;2.00;;;;;21.85;51.04;100905.56;5077036;28;45435;-47
2022/10/22 08:26:49;;;;;;;;;3.25;2.00;;;;;21.86;51.17;100907.25;5084346;28;45191;-50
2022/10/22 08:29:15;;;;;;;;;2.50;1.75;;;;;21.86;51.21;100906.41;5092384;27;45326;-48
2022/10/22 08:31:40;;;;;;;;;3.75;2.50;;;;;21.86;51.00;100901.97;5095246;28;44884;-43
2022/10/22 08:34:07;;;;;;;;;2.00;2.00;;;;;21.84;51.01;100903.84;5084032;28;45586;-47
